sensor_id;sensor_type;location;lat;lon;timestamp;temperature;humidity
44509;DHT22;30214;52.246;14.408;2022-08-01T00:02:19;19.80;99.90
44509;DHT22;30214;52.246;14.408;2022-08-01T00:04:46;19.80;99.90
44509;DHT22;30214;52.246;14.408;2022-08-01T00:07:13;19.70;99.90
44509;DHT22;30214;52.246;14.408;2022-08-01T00:09:40;19.60;99.90
44509;DHT22;30214;52.246;14.408;2022-08-01T00:12:09;19.60;99.90
44509;DHT22;30214;52.246;14.408;2022-08-01T00:14:36;19.60;99.90
44509;DHT22;30214;52.246;14.408;2022-08-01T00:17:03;19.70;99.90
44509;DHT22;30214;52.246;14.408;2022-08-01T00:19:30;19.70;99.90
44509;DHT22;30214;52.246;14.408;2022-08-01T00:21:57;19.60;99.90
44509;DHT22;30214;52.246;14.408;2022-08-01T00:24:24;19.50;99.90
44509;DHT22;30214;52.246;14.408;2022-08-01T00:26:51;19.50;99.90
44509;DHT22;30214;52.246;14.408;2022-08-01T00:29:20;19.50;99.90
44509;DHT22;30214;52.246;14.408;2022-08-01T00:31:47;19.50;99.90
44509;DHT22;30214;52.246;14.408;2022-08-01T00:34:14;19.50;99.90
44509;DHT22;30214;52.246;14.408;2022-08-01T00:36:41;19.50;99.90
44509;DHT22;30214;52.246;14.408;2022-08-01T00:39:08;19.50;99.90
44509;DHT22;30214;52.246;14.408;2022-08-01T00:41:35;19.40;99.90
44509;DHT22;30214;52.246;14.408;2022-08-01T00:44:03;19.40;99.90
44509;DHT22;30214;52.246;14.408;2022-08-01T00:46:32;19.50;99.90
44509;DHT22;30214;52.246;14.408;2022-08-01T00:49:02;19.50;99.90
44509;DHT22;30214;52.246;14.408;2022-08-01T00:51:29;19.50;99.90
44509;DHT22;30214;52.246;14.408;2022-08-01T00:53:57;19.50;99.90
44509;DHT22;30214;52.246;14.408;2022-08-01T00:56:25;19.60;99.90
44509;DHT22;30214;52.246;14.408;2022-08-01T00:58:55;19.60;99.90
44509;DHT22;30214;52.246;14.408;2022-08-01T01:01:22;19.80;99.90
44509;DHT22;30214;52.246;14.408;2022-08-01T01:03:51;19.90;99.90
44509;DHT22;30214;52.246;14.408;2022-08-01T01:06:26;20.00;99.90
44509;DHT22;30214;52.246;14.408;2022-08-01T01:09:12;20.00;99.90
44509;DHT22;30214;52.246;14.408;2022-08-01T01:12:08;20.00;99.90
44509;DHT22;30214;52.246;14.408;2022-08-01T01:14:44;20.10;99.90
44509;DHT22;30214;52.246;14.408;2022-08-01T01:17:16;20.20;99.90
44509;DHT22;30214;52.246;14.408;2022-08-01T01:19:51;20.20;99.90
44509;DHT22;30214;52.246;14.408;2022-08-01T01:22:43;20.30;99.90
44509;DHT22;30214;52.246;14.408;2022-08-01T01:28:57;20.50;99.90
44509;DHT22;30214;52.246;14.408;2022-08-01T01:31:28;20.50;99.90
44509;DHT22;30214;52.246;14.408;2022-08-01T01:33:57;20.50;99.90
44509;DHT22;30214;52.246;14.408;2022-08-01T01:36:26;20.60;99.90
44509;DHT22;30214;52.246;14.408;2022-08-01T01:38:55;20.60;99.90
44509;DHT22;30214;52.246;14.408;2022-08-01T01:41:23;20.60;99.90
44509;DHT22;30214;52.246;14.408;2022-08-01T01:43:51;20.60;99.90
44509;DHT22;30214;52.246;14.408;2022-08-01T01:46:23;20.60;99.90
44509;DHT22;30214;52.246;14.408;2022-08-01T01:48:52;20.60;99.90
44509;DHT22;30214;52.246;14.408;2022-08-01T01:51:22;20.60;99.90
44509;DHT22;30214;52.246;14.408;2022-08-01T01:53:52;20.60;99.90
44509;DHT22;30214;52.246;14.408;2022-08-01T01:56:22;20.60;99.90
44509;DHT22;30214;52.246;14.408;2022-08-01T01:58:52;20.60;99.90
44509;DHT22;30214;52.246;14.408;2022-08-01T02:01:24;20.60;99.90
44509;DHT22;30214;52.246;14.408;2022-08-01T02:03:53;20.60;99.90
44509;DHT22;30214;52.246;14.408;2022-08-01T02:06:24;20.60;99.90
44509;DHT22;30214;52.246;14.408;2022-08-01T02:08:53;20.60;99.90
44509;DHT22;30214;52.246;14.408;2022-08-01T02:11:21;20.50;99.90
44509;DHT22;30214;52.246;14.408;2022-08-01T02:13:53;20.50;99.90
44509;DHT22;30214;52.246;14.408;2022-08-01T02:16:27;20.60;99.90
44509;DHT22;30214;52.246;14.408;2022-08-01T02:18:55;20.60;99.90
44509;DHT22;30214;52.246;14.408;2022-08-01T02:21:26;20.60;99.90
44509;DHT22;30214;52.246;14.408;2022-08-01T02:24:00;20.70;99.90
44509;DHT22;30214;52.246;14.408;2022-08-01T02:26:37;20.60;99.90
44509;DHT22;30214;52.246;14.408;2022-08-01T02:29:07;20.60;99.90
44509;DHT22;30214;52.246;14.408;2022-08-01T02:31:39;20.60;99.90
44509;DHT22;30214;52.246;14.408;2022-08-01T02:34:14;20.60;99.90
44509;DHT22;30214;52.246;14.408;2022-08-01T02:36:45;20.60;99.90
44509;DHT22;30214;52.246;14.408;2022-08-01T02:39:14;20.60;99.90
44509;DHT22;30214;52.246;14.408;2022-08-01T02:41:47;20.50;99.90
44509;DHT22;30214;52.246;14.408;2022-08-01T02:44:18;20.40;99.90
44509;DHT22;30214;52.246;14.408;2022-08-01T02:46:52;20.40;99.90
44509;DHT22;30214;52.246;14.408;2022-08-01T02:49:24;20.40;99.90
44509;DHT22;30214;52.246;14.408;2022-08-01T02:51:53;20.40;99.90
44509;DHT22;30214;52.246;14.408;2022-08-01T02:54:22;20.40;99.90
44509;DHT22;30214;52.246;14.408;2022-08-01T02:56:50;20.40;99.90
44509;DHT22;30214;52.246;14.408;2022-08-01T02:59:22;20.40;99.90
44509;DHT22;30214;52.246;14.408;2022-08-01T03:01:54;20.40;99.90
44509;DHT22;30214;52.246;14.408;2022-08-01T03:04:22;20.30;99.90
44509;DHT22;30214;52.246;14.408;2022-08-01T03:06:51;20.20;99.90
44509;DHT22;30214;52.246;14.408;2022-08-01T03:09:18;20.10;99.90
44509;DHT22;30214;52.246;14.408;2022-08-01T03:11:47;20.00;99.90
44509;DHT22;30214;52.246;14.408;2022-08-01T03:14:17;19.90;99.90
44509;DHT22;30214;52.246;14.408;2022-08-01T03:16:47;19.90;99.90
44509;DHT22;30214;52.246;14.408;2022-08-01T03:19:18;19.80;99.90
44509;DHT22;30214;52.246;14.408;2022-08-01T03:21:47;19.70;99.90
44509;DHT22;30214;52.246;14.408;2022-08-01T03:24:16;19.60;99.90
44509;DHT22;30214;52.246;14.408;2022-08-01T03:26:44;19.60;99.90
44509;DHT22;30214;52.246;14.408;2022-08-01T03:29:15;19.50;99.90
44509;DHT22;30214;52.246;14.408;2022-08-01T03:31:44;19.40;99.90
44509;DHT22;30214;52.246;14.408;2022-08-01T03:34:13;19.40;99.90
44509;DHT22;30214;52.246;14.408;2022-08-01T03:36:46;19.40;99.90
44509;DHT22;30214;52.246;14.408;2022-08-01T03:39:16;19.40;99.90
44509;DHT22;30214;52.246;14.408;2022-08-01T03:41:48;19.40;99.90
44509;DHT22;30214;52.246;14.408;2022-08-01T03:44:24;19.40;99.90
44509;DHT22;30214;52.246;14.408;2022-08-01T03:46:58;19.30;99.90
44509;DHT22;30214;52.246;14.408;2022-08-01T03:49:30;19.30;99.90
44509;DHT22;30214;52.246;14.408;2022-08-01T03:52:02;19.30;99.90
44509;DHT22;30214;52.246;14.408;2022-08-01T03:54:31;19.30;99.90
44509;DHT22;30214;52.246;14.408;2022-08-01T03:57:01;19.10;99.90
44509;DHT22;30214;52.246;14.408;2022-08-01T03:59:29;19.10;99.90
44509;DHT22;30214;52.246;14.408;2022-08-01T04:01:57;19.20;99.90
44509;DHT22;30214;52.246;14.408;2022-08-01T04:04:25;19.10;99.90
44509;DHT22;30214;52.246;14.408;2022-08-01T04:06:52;19.10;99.90
44509;DHT22;30214;52.246;14.408;2022-08-01T04:09:21;19.10;99.90
44509;DHT22;30214;52.246;14.408;2022-08-01T04:11:49;19.10;99.90
44509;DHT22;30214;52.246;14.408;2022-08-01T04:14:16;19.10;99.90
44509;DHT22;30214;52.246;14.408;2022-08-01T04:16:43;19.10;99.90
44509;DHT22;30214;52.246;14.408;2022-08-01T04:19:10;19.00;99.90
44509;DHT22;30214;52.246;14.408;2022-08-01T04:21:37;19.10;99.90
44509;DHT22;30214;52.246;14.408;2022-08-01T04:24:09;19.00;99.90
44509;DHT22;30214;52.246;14.408;2022-08-01T04:26:41;19.00;99.90
44509;DHT22;30214;52.246;14.408;2022-08-01T04:29:11;19.00;99.90
44509;DHT22;30214;52.246;14.408;2022-08-01T04:31:42;19.00;99.90
44509;DHT22;30214;52.246;14.408;2022-08-01T04:34:12;19.00;99.90
44509;DHT22;30214;52.246;14.408;2022-08-01T04:36:43;19.10;99.90
44509;DHT22;30214;52.246;14.408;2022-08-01T04:39:11;19.10;99.90
44509;DHT22;30214;52.246;14.408;2022-08-01T04:41:40;19.20;99.90
44509;DHT22;30214;52.246;14.408;2022-08-01T04:44:07;19.30;99.90
44509;DHT22;30214;52.246;14.408;2022-08-01T04:46:35;19.70;99.90
44509;DHT22;30214;52.246;14.408;2022-08-01T04:49:05;20.30;99.90
44509;DHT22;30214;52.246;14.408;2022-08-01T04:51:33;21.10;99.90
44509;DHT22;30214;52.246;14.408;2022-08-01T04:54:00;21.70;99.90
44509;DHT22;30214;52.246;14.408;2022-08-01T04:56:27;22.40;99.90
44509;DHT22;30214;52.246;14.408;2022-08-01T04:58:55;22.80;99.90
44509;DHT22;30214;52.246;14.408;2022-08-01T05:01:40;22.60;99.90
44509;DHT22;30214;52.246;14.408;2022-08-01T05:04:07;22.70;99.90
44509;DHT22;30214;52.246;14.408;2022-08-01T05:06:34;23.10;99.90
44509;DHT22;30214;52.246;14.408;2022-08-01T05:09:01;23.40;99.90
44509;DHT22;30214;52.246;14.408;2022-08-01T05:11:28;23.60;99.90
44509;DHT22;30214;52.246;14.408;2022-08-01T05:13:57;23.50;99.90
44509;DHT22;30214;52.246;14.408;2022-08-01T05:16:24;23.20;99.90
44509;DHT22;30214;52.246;14.408;2022-08-01T05:18:52;22.90;99.90
44509;DHT22;30214;52.246;14.408;2022-08-01T05:21:19;22.50;99.90
44509;DHT22;30214;52.246;14.408;2022-08-01T05:23:45;22.20;99.90
44509;DHT22;30214;52.246;14.408;2022-08-01T05:26:14;22.10;99.90
44509;DHT22;30214;52.246;14.408;2022-08-01T05:28:41;21.90;99.90
44509;DHT22;30214;52.246;14.408;2022-08-01T05:31:10;21.80;99.90
44509;DHT22;30214;52.246;14.408;2022-08-01T05:33:38;21.80;99.90
44509;DHT22;30214;52.246;14.408;2022-08-01T05:36:05;21.80;99.90
44509;DHT22;30214;52.246;14.408;2022-08-01T05:38:32;21.80;99.90
44509;DHT22;30214;52.246;14.408;2022-08-01T05:40:59;21.90;99.90
44509;DHT22;30214;52.246;14.408;2022-08-01T05:43:26;22.20;99.90
44509;DHT22;30214;52.246;14.408;2022-08-01T05:45:53;22.60;99.90
44509;DHT22;30214;52.246;14.408;2022-08-01T05:48:22;22.80;99.90
44509;DHT22;30214;52.246;14.408;2022-08-01T05:50:50;22.80;99.90
44509;DHT22;30214;52.246;14.408;2022-08-01T05:53:17;22.60;99.90
44509;DHT22;30214;52.246;14.408;2022-08-01T05:55:44;22.40;99.90
44509;DHT22;30214;52.246;14.408;2022-08-01T05:58:11;22.30;99.90
44509;DHT22;30214;52.246;14.408;2022-08-01T06:00:39;22.40;99.90
44509;DHT22;30214;52.246;14.408;2022-08-01T06:03:06;22.50;99.90
44509;DHT22;30214;52.246;14.408;2022-08-01T06:05:34;22.40;99.90
44509;DHT22;30214;52.246;14.408;2022-08-01T06:08:01;22.20;99.90
44509;DHT22;30214;52.246;14.408;2022-08-01T06:10:28;21.90;99.90
44509;DHT22;30214;52.246;14.408;2022-08-01T06:12:55;21.70;99.90
44509;DHT22;30214;52.246;14.408;2022-08-01T06:15:22;21.50;99.90
44509;DHT22;30214;52.246;14.408;2022-08-01T06:17:50;21.50;99.90
44509;DHT22;30214;52.246;14.408;2022-08-01T06:20:17;21.50;99.90
44509;DHT22;30214;52.246;14.408;2022-08-01T06:22:45;21.50;99.90
44509;DHT22;30214;52.246;14.408;2022-08-01T06:25:12;21.60;99.90
44509;DHT22;30214;52.246;14.408;2022-08-01T06:27:39;21.70;99.90
44509;DHT22;30214;52.246;14.408;2022-08-01T06:30:07;21.80;99.90
44509;DHT22;30214;52.246;14.408;2022-08-01T06:32:35;21.90;99.90
44509;DHT22;30214;52.246;14.408;2022-08-01T06:35:04;22.00;99.90
44509;DHT22;30214;52.246;14.408;2022-08-01T06:37:32;22.20;99.90
44509;DHT22;30214;52.246;14.408;2022-08-01T06:40:02;22.30;99.90
44509;DHT22;30214;52.246;14.408;2022-08-01T06:42:29;22.30;99.90
44509;DHT22;30214;52.246;14.408;2022-08-01T06:45:01;22.30;99.90
44509;DHT22;30214;52.246;14.408;2022-08-01T06:47:28;22.30;99.90
44509;DHT22;30214;52.246;14.408;2022-08-01T06:49:54;22.30;99.90
44509;DHT22;30214;52.246;14.408;2022-08-01T06:52:21;22.30;99.90
44509;DHT22;30214;52.246;14.408;2022-08-01T06:54:48;22.40;99.90
44509;DHT22;30214;52.246;14.408;2022-08-01T06:57:17;22.50;99.90
44509;DHT22;30214;52.246;14.408;2022-08-01T06:59:44;22.40;99.90
44509;DHT22;30214;52.246;14.408;2022-08-01T07:02:11;22.40;99.90
44509;DHT22;30214;52.246;14.408;2022-08-01T07:04:38;22.40;99.90
44509;DHT22;30214;52.246;14.408;2022-08-01T07:07:05;22.40;99.90
44509;DHT22;30214;52.246;14.408;2022-08-01T07:09:32;22.40;99.90
44509;DHT22;30214;52.246;14.408;2022-08-01T07:11:59;22.40;99.90
44509;DHT22;30214;52.246;14.408;2022-08-01T07:14:28;22.40;99.90
44509;DHT22;30214;52.246;14.408;2022-08-01T07:16:55;22.50;99.90
44509;DHT22;30214;52.246;14.408;2022-08-01T07:19:22;22.70;99.90
44509;DHT22;30214;52.246;14.408;2022-08-01T07:21:49;22.70;99.90
44509;DHT22;30214;52.246;14.408;2022-08-01T07:24:16;22.60;99.90
44509;DHT22;30214;52.246;14.408;2022-08-01T07:26:45;22.50;99.90
44509;DHT22;30214;52.246;14.408;2022-08-01T07:29:13;22.60;99.90
44509;DHT22;30214;52.246;14.408;2022-08-01T07:31:42;22.60;99.90
44509;DHT22;30214;52.246;14.408;2022-08-01T07:34:09;22.60;99.90
44509;DHT22;30214;52.246;14.408;2022-08-01T07:36:36;22.70;99.90
44509;DHT22;30214;52.246;14.408;2022-08-01T07:39:03;22.80;99.90
44509;DHT22;30214;52.246;14.408;2022-08-01T07:41:31;22.90;99.90
44509;DHT22;30214;52.246;14.408;2022-08-01T07:43:58;23.10;99.90
44509;DHT22;30214;52.246;14.408;2022-08-01T07:46:25;23.10;99.90
44509;DHT22;30214;52.246;14.408;2022-08-01T07:48:53;23.10;99.90
44509;DHT22;30214;52.246;14.408;2022-08-01T07:51:21;23.20;99.90
44509;DHT22;30214;52.246;14.408;2022-08-01T07:53:48;23.20;99.90
44509;DHT22;30214;52.246;14.408;2022-08-01T07:56:15;23.20;99.90
44509;DHT22;30214;52.246;14.408;2022-08-01T07:58:42;23.10;99.90
44509;DHT22;30214;52.246;14.408;2022-08-01T08:01:10;23.10;99.90
44509;DHT22;30214;52.246;14.408;2022-08-01T08:03:38;23.20;99.90
44509;DHT22;30214;52.246;14.408;2022-08-01T08:06:06;23.30;99.90
44509;DHT22;30214;52.246;14.408;2022-08-01T08:08:33;23.30;99.90
44509;DHT22;30214;52.246;14.408;2022-08-01T08:11:01;23.30;99.90
44509;DHT22;30214;52.246;14.408;2022-08-01T08:13:28;23.10;99.90
44509;DHT22;30214;52.246;14.408;2022-08-01T08:15:55;23.10;99.90
44509;DHT22;30214;52.246;14.408;2022-08-01T08:18:24;23.10;99.90
44509;DHT22;30214;52.246;14.408;2022-08-01T08:20:51;23.10;99.90
44509;DHT22;30214;52.246;14.408;2022-08-01T08:23:19;23.20;99.90
44509;DHT22;30214;52.246;14.408;2022-08-01T08:26:04;23.60;99.90
44509;DHT22;30214;52.246;14.408;2022-08-01T08:28:31;24.00;99.90
44509;DHT22;30214;52.246;14.408;2022-08-01T08:30:58;24.50;99.90
44509;DHT22;30214;52.246;14.408;2022-08-01T08:33:25;24.90;99.90
44509;DHT22;30214;52.246;14.408;2022-08-01T08:35:52;25.10;99.90
44509;DHT22;30214;52.246;14.408;2022-08-01T08:38:22;25.10;99.90
44509;DHT22;30214;52.246;14.408;2022-08-01T08:40:52;24.90;99.90
44509;DHT22;30214;52.246;14.408;2022-08-01T08:43:20;24.70;99.90
44509;DHT22;30214;52.246;14.408;2022-08-01T08:45:49;24.60;99.90
44509;DHT22;30214;52.246;14.408;2022-08-01T08:48:17;24.50;99.90
44509;DHT22;30214;52.246;14.408;2022-08-01T08:50:45;24.80;99.90
44509;DHT22;30214;52.246;14.408;2022-08-01T08:53:13;25.00;99.90
44509;DHT22;30214;52.246;14.408;2022-08-01T08:55:42;25.10;99.20
44509;DHT22;30214;52.246;14.408;2022-08-01T08:58:12;25.00;99.30
44509;DHT22;30214;52.246;14.408;2022-08-01T09:00:40;25.00;99.90
44509;DHT22;30214;52.246;14.408;2022-08-01T09:03:08;24.80;99.40
44509;DHT22;30214;52.246;14.408;2022-08-01T09:05:35;24.90;99.90
44509;DHT22;30214;52.246;14.408;2022-08-01T09:08:06;25.00;99.60
44509;DHT22;30214;52.246;14.408;2022-08-01T09:10:34;24.80;99.90
44509;DHT22;30214;52.246;14.408;2022-08-01T09:13:04;24.60;99.90
44509;DHT22;30214;52.246;14.408;2022-08-01T09:15:43;24.40;99.90
44509;DHT22;30214;52.246;14.408;2022-08-01T09:18:29;24.40;99.90
44509;DHT22;30214;52.246;14.408;2022-08-01T09:21:11;24.40;99.90
44509;DHT22;30214;52.246;14.408;2022-08-01T09:23:43;24.50;99.90
44509;DHT22;30214;52.246;14.408;2022-08-01T09:26:14;24.60;99.90
44509;DHT22;30214;52.246;14.408;2022-08-01T09:28:47;25.00;99.90
44509;DHT22;30214;52.246;14.408;2022-08-01T09:31:17;25.20;99.90
44509;DHT22;30214;52.246;14.408;2022-08-01T09:33:50;25.20;99.20
44509;DHT22;30214;52.246;14.408;2022-08-01T09:36:19;25.30;99.10
44509;DHT22;30214;52.246;14.408;2022-08-01T09:38:49;25.30;99.40
44509;DHT22;30214;52.246;14.408;2022-08-01T09:41:28;25.30;99.20
44509;DHT22;30214;52.246;14.408;2022-08-01T09:43:58;25.10;99.30
44509;DHT22;30214;52.246;14.408;2022-08-01T09:46:26;25.00;99.20
44509;DHT22;30214;52.246;14.408;2022-08-01T09:48:57;24.80;99.90
44509;DHT22;30214;52.246;14.408;2022-08-01T09:51:31;24.40;99.90
44509;DHT22;30214;52.246;14.408;2022-08-01T09:54:01;24.10;99.90
44509;DHT22;30214;52.246;14.408;2022-08-01T09:56:37;23.50;99.90
44509;DHT22;30214;52.246;14.408;2022-08-01T09:59:06;23.20;99.90
44509;DHT22;30214;52.246;14.408;2022-08-01T10:01:44;23.10;99.90
44509;DHT22;30214;52.246;14.408;2022-08-01T10:04:14;23.20;99.90
44509;DHT22;30214;52.246;14.408;2022-08-01T10:06:46;23.40;99.90
44509;DHT22;30214;52.246;14.408;2022-08-01T10:09:27;23.40;99.90
44509;DHT22;30214;52.246;14.408;2022-08-01T10:11:56;23.40;99.90
44509;DHT22;30214;52.246;14.408;2022-08-01T10:14:27;23.40;99.90
44509;DHT22;30214;52.246;14.408;2022-08-01T10:16:57;23.40;99.90
44509;DHT22;30214;52.246;14.408;2022-08-01T10:19:29;23.30;99.90
44509;DHT22;30214;52.246;14.408;2022-08-01T10:21:58;23.20;99.90
44509;DHT22;30214;52.246;14.408;2022-08-01T10:24:30;22.80;99.90
44509;DHT22;30214;52.246;14.408;2022-08-01T10:27:01;22.60;99.90
44509;DHT22;30214;52.246;14.408;2022-08-01T10:29:36;22.50;99.90
44509;DHT22;30214;52.246;14.408;2022-08-01T10:32:05;22.60;99.90
44509;DHT22;30214;52.246;14.408;2022-08-01T10:34:35;22.70;99.90
44509;DHT22;30214;52.246;14.408;2022-08-01T10:37:07;22.90;99.90
44509;DHT22;30214;52.246;14.408;2022-08-01T10:39:34;23.00;99.90
44509;DHT22;30214;52.246;14.408;2022-08-01T10:42:02;23.10;99.90
44509;DHT22;30214;52.246;14.408;2022-08-01T10:44:32;23.10;99.90
44509;DHT22;30214;52.246;14.408;2022-08-01T10:47:05;23.10;99.90
44509;DHT22;30214;52.246;14.408;2022-08-01T10:49:38;23.10;99.90
44509;DHT22;30214;52.246;14.408;2022-08-01T10:52:14;23.00;99.90
44509;DHT22;30214;52.246;14.408;2022-08-01T10:54:42;22.70;99.90
44509;DHT22;30214;52.246;14.408;2022-08-01T10:57:10;22.50;99.90
44509;DHT22;30214;52.246;14.408;2022-08-01T10:59:49;22.40;99.90
44509;DHT22;30214;52.246;14.408;2022-08-01T11:02:29;22.40;99.90
44509;DHT22;30214;52.246;14.408;2022-08-01T11:05:04;22.40;99.90
44509;DHT22;30214;52.246;14.408;2022-08-01T11:07:43;22.30;99.90
44509;DHT22;30214;52.246;14.408;2022-08-01T11:10:23;22.30;99.90
44509;DHT22;30214;52.246;14.408;2022-08-01T11:12:54;22.30;99.90
44509;DHT22;30214;52.246;14.408;2022-08-01T11:15:24;22.30;99.90
44509;DHT22;30214;52.246;14.408;2022-08-01T11:17:59;22.30;99.90
44509;DHT22;30214;52.246;14.408;2022-08-01T11:20:31;22.40;99.90
44509;DHT22;30214;52.246;14.408;2022-08-01T11:23:23;22.50;99.90
44509;DHT22;30214;52.246;14.408;2022-08-01T11:26:13;22.60;99.90
44509;DHT22;30214;52.246;14.408;2022-08-01T11:28:44;22.90;99.90
44509;DHT22;30214;52.246;14.408;2022-08-01T11:31:32;23.00;99.90
44509;DHT22;30214;52.246;14.408;2022-08-01T11:34:00;23.30;99.90
44509;DHT22;30214;52.246;14.408;2022-08-01T11:36:28;23.30;99.90
44509;DHT22;30214;52.246;14.408;2022-08-01T11:39:16;23.40;99.90
44509;DHT22;30214;52.246;14.408;2022-08-01T11:41:48;23.10;99.90
44509;DHT22;30214;52.246;14.408;2022-08-01T11:44:21;22.90;99.90
44509;DHT22;30214;52.246;14.408;2022-08-01T11:46:56;22.70;99.90
44509;DHT22;30214;52.246;14.408;2022-08-01T11:52:16;22.70;99.90
44509;DHT22;30214;52.246;14.408;2022-08-01T11:54:46;22.80;99.90
44509;DHT22;30214;52.246;14.408;2022-08-01T11:57:18;22.90;99.90
44509;DHT22;30214;52.246;14.408;2022-08-01T11:59:48;23.10;99.90
44509;DHT22;30214;52.246;14.408;2022-08-01T12:02:21;23.40;99.90
44509;DHT22;30214;52.246;14.408;2022-08-01T12:04:54;23.70;99.90
44509;DHT22;30214;52.246;14.408;2022-08-01T12:07:27;23.80;99.90
44509;DHT22;30214;52.246;14.408;2022-08-01T12:10:00;23.90;99.90
44509;DHT22;30214;52.246;14.408;2022-08-01T12:12:31;24.00;99.90
44509;DHT22;30214;52.246;14.408;2022-08-01T12:15:01;24.20;99.90
44509;DHT22;30214;52.246;14.408;2022-08-01T12:17:36;24.20;99.90
44509;DHT22;30214;52.246;14.408;2022-08-01T12:20:06;24.20;99.90
44509;DHT22;30214;52.246;14.408;2022-08-01T12:22:35;24.20;99.90
44509;DHT22;30214;52.246;14.408;2022-08-01T12:25:07;24.20;99.90
44509;DHT22;30214;52.246;14.408;2022-08-01T12:27:36;24.20;99.90
44509;DHT22;30214;52.246;14.408;2022-08-01T12:30:06;24.20;99.90
44509;DHT22;30214;52.246;14.408;2022-08-01T12:32:38;24.10;99.90
44509;DHT22;30214;52.246;14.408;2022-08-01T12:35:08;24.20;99.90
44509;DHT22;30214;52.246;14.408;2022-08-01T12:37:37;24.10;99.90
44509;DHT22;30214;52.246;14.408;2022-08-01T12:40:11;24.10;99.90
44509;DHT22;30214;52.246;14.408;2022-08-01T12:42:44;24.00;99.90
44509;DHT22;30214;52.246;14.408;2022-08-01T12:45:14;23.90;99.90
44509;DHT22;30214;52.246;14.408;2022-08-01T12:47:44;23.90;99.90
44509;DHT22;30214;52.246;14.408;2022-08-01T12:50:15;23.90;99.90
44509;DHT22;30214;52.246;14.408;2022-08-01T12:52:42;24.00;99.90
44509;DHT22;30214;52.246;14.408;2022-08-01T12:55:12;24.10;99.90
44509;DHT22;30214;52.246;14.408;2022-08-01T12:57:42;24.30;99.90
44509;DHT22;30214;52.246;14.408;2022-08-01T13:00:17;24.50;99.90
44509;DHT22;30214;52.246;14.408;2022-08-01T13:02:49;24.60;99.80
44509;DHT22;30214;52.246;14.408;2022-08-01T13:05:17;24.70;98.70
44509;DHT22;30214;52.246;14.408;2022-08-01T13:07:47;24.80;97.90
44509;DHT22;30214;52.246;14.408;2022-08-01T13:10:25;24.80;98.10
44509;DHT22;30214;52.246;14.408;2022-08-01T13:12:56;24.80;98.90
44509;DHT22;30214;52.246;14.408;2022-08-01T13:15:27;24.80;98.70
44509;DHT22;30214;52.246;14.408;2022-08-01T13:18:00;24.80;98.90
44509;DHT22;30214;52.246;14.408;2022-08-01T13:20:31;25.00;98.40
44509;DHT22;30214;52.246;14.408;2022-08-01T13:23:13;25.00;97.00
44509;DHT22;30214;52.246;14.408;2022-08-01T13:25:48;25.00;97.70
44509;DHT22;30214;52.246;14.408;2022-08-01T13:28:18;25.00;96.50
44509;DHT22;30214;52.246;14.408;2022-08-01T13:30:57;25.00;97.00
44509;DHT22;30214;52.246;14.408;2022-08-01T13:33:27;25.10;97.80
44509;DHT22;30214;52.246;14.408;2022-08-01T13:36:06;25.10;96.50
44509;DHT22;30214;52.246;14.408;2022-08-01T13:38:33;25.10;96.80
44509;DHT22;30214;52.246;14.408;2022-08-01T13:41:18;25.00;97.70
44509;DHT22;30214;52.246;14.408;2022-08-01T13:43:45;25.10;97.60
44509;DHT22;30214;52.246;14.408;2022-08-01T13:46:12;25.00;97.90
44509;DHT22;30214;52.246;14.408;2022-08-01T13:48:41;25.00;96.70
44509;DHT22;30214;52.246;14.408;2022-08-01T13:51:08;25.10;96.90
44509;DHT22;30214;52.246;14.408;2022-08-01T13:53:35;25.10;96.60
44509;DHT22;30214;52.246;14.408;2022-08-01T13:56:02;25.10;97.20
44509;DHT22;30214;52.246;14.408;2022-08-01T13:58:30;25.20;97.70
44509;DHT22;30214;52.246;14.408;2022-08-01T14:00:57;25.10;96.70
44509;DHT22;30214;52.246;14.408;2022-08-01T14:03:24;24.90;97.80
44509;DHT22;30214;52.246;14.408;2022-08-01T14:05:52;24.80;97.60
44509;DHT22;30214;52.246;14.408;2022-08-01T14:08:19;24.60;98.10
44509;DHT22;30214;52.246;14.408;2022-08-01T14:10:46;24.50;98.50
44509;DHT22;30214;52.246;14.408;2022-08-01T14:13:13;24.60;98.10
44509;DHT22;30214;52.246;14.408;2022-08-01T14:15:40;24.60;98.00
44509;DHT22;30214;52.246;14.408;2022-08-01T14:18:08;24.60;98.30
44509;DHT22;30214;52.246;14.408;2022-08-01T14:20:36;24.60;98.70
44509;DHT22;30214;52.246;14.408;2022-08-01T14:23:05;24.60;99.20
44509;DHT22;30214;52.246;14.408;2022-08-01T14:25:32;24.80;97.80
44509;DHT22;30214;52.246;14.408;2022-08-01T14:27:59;24.70;97.30
44509;DHT22;30214;52.246;14.408;2022-08-01T14:30:26;24.80;97.40
44509;DHT22;30214;52.246;14.408;2022-08-01T14:32:54;24.70;96.70
44509;DHT22;30214;52.246;14.408;2022-08-01T14:35:21;24.60;97.20
44509;DHT22;30214;52.246;14.408;2022-08-01T14:37:48;24.50;96.90
44509;DHT22;30214;52.246;14.408;2022-08-01T14:40:17;24.40;97.20
44509;DHT22;30214;52.246;14.408;2022-08-01T14:42:44;24.40;97.80
44509;DHT22;30214;52.246;14.408;2022-08-01T14:45:12;24.30;98.30
44509;DHT22;30214;52.246;14.408;2022-08-01T14:47:41;24.30;98.40
44509;DHT22;30214;52.246;14.408;2022-08-01T14:50:11;24.30;97.80
44509;DHT22;30214;52.246;14.408;2022-08-01T14:52:39;24.40;98.60
44509;DHT22;30214;52.246;14.408;2022-08-01T14:55:08;24.50;97.60
44509;DHT22;30214;52.246;14.408;2022-08-01T14:57:37;24.60;96.80
44509;DHT22;30214;52.246;14.408;2022-08-01T15:00:07;24.80;97.90
44509;DHT22;30214;52.246;14.408;2022-08-01T15:02:36;24.80;95.20
44509;DHT22;30214;52.246;14.408;2022-08-01T15:05:04;24.70;95.10
44509;DHT22;30214;52.246;14.408;2022-08-01T15:07:32;24.60;94.70
44509;DHT22;30214;52.246;14.408;2022-08-01T15:10:00;24.60;94.60
44509;DHT22;30214;52.246;14.408;2022-08-01T15:12:27;24.60;94.80
44509;DHT22;30214;52.246;14.408;2022-08-01T15:14:56;24.50;94.30
44509;DHT22;30214;52.246;14.408;2022-08-01T15:17:25;24.60;94.40
44509;DHT22;30214;52.246;14.408;2022-08-01T15:19:55;24.70;95.20
44509;DHT22;30214;52.246;14.408;2022-08-01T15:22:24;24.70;94.80
44509;DHT22;30214;52.246;14.408;2022-08-01T15:24:53;24.60;94.90
44509;DHT22;30214;52.246;14.408;2022-08-01T15:27:21;24.60;95.50
44509;DHT22;30214;52.246;14.408;2022-08-01T15:29:49;24.70;95.50
44509;DHT22;30214;52.246;14.408;2022-08-01T15:32:17;24.70;95.90
44509;DHT22;30214;52.246;14.408;2022-08-01T15:34:45;24.80;95.70
44509;DHT22;30214;52.246;14.408;2022-08-01T15:37:12;24.70;95.80
44509;DHT22;30214;52.246;14.408;2022-08-01T15:39:40;24.60;95.80